Time;durP1;ratioP1;P1;durP2;ratioP2;P2;SDS_P1;SDS_P2;PMS_P1;PMS_P2;Temp;Humidity;BMP_temperature;BMP_pressure;BME280_temperature;BME280_humidity;BME280_pressure;Samples;Min_cycle;Max_cycle;Signal;HPM_P1;HPM_P2
2020/12/08 00:02:16;;;;;;;13.52;11.13;;;5.30;99.90;;;;;;4938410;29;20277;-77
2020/12/08 00:04:43;;;;;;;17.58;11.70;;;5.20;99.90;;;;;;4936532;29;20197;-78
2020/12/08 00:07:10;;;;;;;13.55;9.65;;;5.30;99.90;;;;;;4937269;29;20216;-76
2020/12/08 00:09:38;;;;;;;15.43;10.95;;;5.30;99.90;;;;;;4938175;29;20184;-78
2020/12/08 00:12:06;;;;;;;22.02;12.45;;;5.30;99.90;;;;;;4937575;29;20287;-77
2020/12/08 00:14:34;;;;;;;18.33;12.27;;;5.40;99.90;;;;;;4936424;29;20667;-76
2020/12/08 00:17:02;;;;;;;23.73;12.40;;;5.40;99.90;;;;;;4937316;29;20216;-77
2020/12/08 00:19:29;;;;;;;12.30;11.07;;;5.40;99.90;;;;;;4937007;29;20223;-77
2020/12/08 00:21:56;;;;;;;14.35;11.63;;;5.40;99.90;;;;;;4936401;29;20208;-77
2020/12/08 00:24:24;;;;;;;21.23;12.80;;;5.40;99.90;;;;;;4937286;29;20666;-76
2020/12/08 00:26:52;;;;;;;16.70;9.73;;;5.40;99.90;;;;;;4936745;29;20256;-76
2020/12/08 00:29:19;;;;;;;17.23;11.95;;;5.40;99.90;;;;;;4936796;29;20204;-77
2020/12/08 00:31:46;;;;;;;27.98;13.13;;;5.40;99.90;;;;;;4935530;29;20193;-76
2020/12/08 00:34:13;;;;;;;18.83;10.15;;;5.40;99.90;;;;;;4937051;29;20196;-76
2020/12/08 00:36:40;;;;;;;17.88;10.80;;;5.30;99.90;;;;;;4936555;29;20199;-76
2020/12/08 00:39:07;;;;;;;21.83;11.18;;;5.30;99.90;;;;;;4937227;29;20548;-76
2020/12/08 00:41:34;;;;;;;22.20;12.45;;;5.30;99.90;;;;;;4938149;29;20567;-76
2020/12/08 00:44:02;;;;;;;18.75;11.73;;;5.30;99.90;;;;;;4937128;29;20626;-76
2020/12/08 00:46:34;;;;;;;22.08;12.82;;;5.30;99.90;;;;;;4937069;29;20201;-77
2020/12/08 00:49:01;;;;;;;21.45;14.15;;;5.40;99.90;;;;;;4936210;29;20209;-77
2020/12/08 00:51:28;;;;;;;18.63;10.90;;;5.40;99.90;;;;;;4938452;29;20181;-76
2020/12/08 00:53:56;;;;;;;18.23;12.23;;;5.40;99.90;;;;;;4944171;29;20201;-76
2020/12/08 00:56:24;;;;;;;18.55;12.18;;;5.30;99.90;;;;;;4945326;29;20644;-77
2020/12/08 00:58:53;;;;;;;14.02;11.85;;;5.40;99.90;;;;;;4944203;29;20225;-77
2020/12/08 01:01:22;;;;;;;17.33;12.30;;;5.30;99.90;;;;;;4945479;29;20196;-77
2020/12/08 01:03:49;;;;;;;21.60;14.75;;;5.30;99.90;;;;;;4945362;29;20189;-77
2020/12/08 01:06:20;;;;;;;19.25;13.10;;;5.30;99.90;;;;;;4938904;29;20220;-77
2020/12/08 01:08:48;;;;;;;26.00;13.23;;;5.20;99.90;;;;;;4936862;29;20618;-77
2020/12/08 01:11:15;;;;;;;17.73;13.43;;;5.30;99.90;;;;;;4935679;29;20189;-78
2020/12/08 01:13:43;;;;;;;25.42;14.95;;;5.20;99.90;;;;;;4934896;29;20197;-77
2020/12/08 01:16:17;;;;;;;22.65;13.10;;;5.20;99.90;;;;;;4934962;29;20196;-76
2020/12/08 01:18:45;;;;;;;19.15;15.05;;;5.20;99.90;;;;;;4934503;29;20307;-77
2020/12/08 01:21:15;;;;;;;21.55;12.20;;;5.20;99.90;;;;;;4935196;29;20289;-77
2020/12/08 01:23:45;;;;;;;26.92;16.50;;;5.20;99.90;;;;;;4934723;29;20193;-77
2020/12/08 01:26:20;;;;;;;25.58;14.82;;;5.20;99.90;;;;;;4934777;29;20676;-77
2020/12/08 01:28:48;;;;;;;18.42;11.95;;;5.30;99.90;;;;;;4935879;29;20750;-77
2020/12/08 01:31:15;;;;;;;23.05;14.05;;;5.30;99.90;;;;;;4933848;29;20671;-77
2020/12/08 01:33:43;;;;;;;35.35;19.35;;;5.40;99.90;;;;;;4934649;29;20243;-76
2020/12/08 01:36:18;;;;;;;21.33;15.80;;;5.40;99.90;;;;;;4934478;29;20193;-77
2020/12/08 01:38:47;;;;;;;22.38;15.50;;;5.40;99.90;;;;;;4934306;29;20220;-77
2020/12/08 01:41:15;;;;;;;28.55;16.02;;;5.40;99.90;;;;;;4934652;29;20200;-76
2020/12/08 01:43:47;;;;;;;23.70;12.90;;;5.40;99.90;;;;;;4934582;29;20201;-76
2020/12/08 01:46:17;;;;;;;20.88;14.55;;;5.50;99.90;;;;;;4935780;29;20201;-77
2020/12/08 01:48:46;;;;;;;22.35;15.82;;;5.50;99.90;;;;;;4937122;29;20221;-77
2020/12/08 01:51:15;;;;;;;20.80;13.30;;;5.60;99.90;;;;;;4936228;29;20188;-77
2020/12/08 01:53:43;;;;;;;24.80;16.95;;;5.60;99.90;;;;;;4934775;29;20278;-76
2020/12/08 01:56:12;;;;;;;21.73;13.23;;;5.60;99.90;;;;;;4934690;29;20196;-76
2020/12/08 01:58:39;;;;;;;28.23;13.48;;;5.60;99.90;;;;;;4934330;29;20219;-79
2020/12/08 02:01:11;;;;;;;29.38;15.23;;;5.50;99.90;;;;;;4934188;29;20189;-77
2020/12/08 02:03:40;;;;;;;27.48;13.27;;;5.50;99.90;;;;;;4934459;29;20204;-77
2020/12/08 02:06:09;;;;;;;19.92;13.27;;;5.50;99.90;;;;;;4934140;29;20288;-77
2020/12/08 02:08:38;;;;;;;24.65;14.82;;;5.50;99.90;;;;;;4934222;29;20759;-77
2020/12/08 02:11:20;;;;;;;23.30;15.60;;;5.50;99.90;;;;;;4934601;29;20219;-77
2020/12/08 02:13:49;;;;;;;25.25;15.27;;;5.50;99.90;;;;;;4934087;29;20207;-78
2020/12/08 02:16:16;;;;;;;28.63;19.52;;;5.50;99.90;;;;;;4934189;29;20231;-78
2020/12/08 02:18:43;;;;;;;31.15;14.85;;;5.60;99.90;;;;;;4934183;29;20276;-78
2020/12/08 02:21:11;;;;;;;26.33;15.02;;;5.70;99.90;;;;;;4935295;29;20236;-78
2020/12/08 02:23:50;;;;;;;25.52;14.95;;;5.70;99.90;;;;;;4934207;29;20205;-77
2020/12/08 02:26:24;;;;;;;29.42;17.98;;;5.60;99.90;;;;;;4934112;29;20581;-76
2020/12/08 02:28:51;;;;;;;22.58;15.93;;;5.60;99.90;;;;;;4935472;29;20208;-77
2020/12/08 02:31:21;;;;;;;26.73;14.48;;;5.50;99.90;;;;;;4934563;29;20260;-77
2020/12/08 02:33:48;;;;;;;23.80;16.52;;;5.50;99.90;;;;;;4934180;29;20193;-77
2020/12/08 02:36:16;;;;;;;26.23;15.25;;;5.40;99.90;;;;;;4934507;29;20197;-77
2020/12/08 02:38:43;;;;;;;20.98;14.80;;;5.50;99.90;;;;;;4934387;29;20222;-77
2020/12/08 02:41:12;;;;;;;23.20;15.07;;;5.50;99.90;;;;;;4934434;29;20208;-77
2020/12/08 02:43:39;;;;;;;22.10;13.27;;;5.50;99.90;;;;;;4937470;29;20221;-77
2020/12/08 02:46:06;;;;;;;21.17;15.45;;;5.40;99.90;;;;;;4939614;29;20193;-77
2020/12/08 02:48:34;;;;;;;23.73;16.25;;;5.40;99.90;;;;;;4939533;29;20900;-76
2020/12/08 02:51:07;;;;;;;23.08;14.75;;;5.30;99.90;;;;;;4954332;29;20185;-76
2020/12/08 02:53:38;;;;;;;21.10;12.20;;;5.30;99.90;;;;;;4954481;29;20209;-76
2020/12/08 02:56:06;;;;;;;28.48;14.88;;;5.30;99.90;;;;;;4953813;29;20193;-75
2020/12/08 02:58:33;;;;;;;28.38;16.90;;;5.30;99.90;;;;;;4951963;29;20256;-77
2020/12/08 03:01:01;;;;;;;33.05;16.13;;;5.30;99.90;;;;;;4943002;29;20267;-76
2020/12/08 03:03:28;;;;;;;30.75;14.82;;;5.40;99.90;;;;;;4938357;29;20216;-75
2020/12/08 03:05:55;;;;;;;26.35;15.38;;;5.40;99.90;;;;;;4937741;29;20715;-76
2020/12/08 03:08:24;;;;;;;24.08;16.13;;;5.40;99.90;;;;;;4937985;29;20711;-76
2020/12/08 03:10:52;;;;;;;27.48;16.20;;;5.50;99.90;;;;;;4938210;29;20552;-77
2020/12/08 03:13:21;;;;;;;28.67;17.08;;;5.50;99.90;;;;;;4937667;29;20735;-77
2020/12/08 03:15:51;;;;;;;22.52;14.73;;;5.40;99.90;;;;;;4937592;29;20279;-77
2020/12/08 03:18:18;;;;;;;27.25;16.40;;;5.40;99.90;;;;;;4936869;29;20714;-78
2020/12/08 03:20:45;;;;;;;26.77;15.25;;;5.40;99.90;;;;;;4937274;29;20208;-76
2020/12/08 03:23:13;;;;;;;22.38;17.30;;;5.40;99.90;;;;;;4937119;29;20296;-78
2020/12/08 03:25:42;;;;;;;18.25;13.55;;;5.40;99.90;;;;;;4938338;29;20180;-76
2020/12/08 03:28:13;;;;;;;29.00;15.32;;;5.40;99.90;;;;;;4937461;29;20308;-76
2020/12/08 03:30:44;;;;;;;31.58;15.65;;;5.40;99.90;;;;;;4937080;29;20610;-75
2020/12/08 03:33:11;;;;;;;25.77;17.38;;;5.40;99.90;;;;;;4937988;29;20204;-76
2020/12/08 03:35:40;;;;;;;27.95;16.13;;;5.40;99.90;;;;;;4939118;29;20196;-77
2020/12/08 03:38:07;;;;;;;28.17;15.32;;;5.40;99.90;;;;;;4935637;29;20221;-76
2020/12/08 03:40:35;;;;;;;30.95;14.45;;;5.30;99.90;;;;;;4929610;29;20235;-77
2020/12/08 03:43:08;;;;;;;19.17;13.70;;;5.40;99.90;;;;;;4940172;29;20215;-76
2020/12/08 03:45:38;;;;;;;24.88;15.02;;;5.40;99.90;;;;;;4936826;29;20196;-77
2020/12/08 03:48:06;;;;;;;23.83;13.48;;;5.40;99.90;;;;;;4936467;29;20296;-76
2020/12/08 03:50:39;;;;;;;30.08;15.63;;;5.40;99.90;;;;;;4936919;29;20211;-77
2020/12/08 03:53:12;;;;;;;27.23;15.13;;;5.40;99.90;;;;;;4936594;29;20291;-77
2020/12/08 03:55:48;;;;;;;25.77;14.60;;;5.40;99.90;;;;;;4935951;29;20212;-77
2020/12/08 03:58:15;;;;;;;28.67;16.42;;;5.40;99.90;;;;;;4936171;29;20221;-77
2020/12/08 04:00:44;;;;;;;25.55;18.08;;;5.40;99.90;;;;;;4937528;29;20275;-77
2020/12/08 04:03:11;;;;;;;22.55;13.63;;;5.40;99.90;;;;;;4936161;29;20185;-76
2020/12/08 04:05:43;;;;;;;18.55;15.10;;;5.40;99.90;;;;;;4936037;29;20203;-77
2020/12/08 04:08:11;;;;;;;25.17;17.95;;;5.30;99.90;;;;;;4935628;29;20590;-76
2020/12/08 04:10:45;;;;;;;27.95;15.65;;;5.50;99.90;;;;;;4936087;29;20353;-77
2020/12/08 04:13:13;;;;;;;30.33;17.08;;;5.40;99.90;;;;;;4935661;29;20252;-77
2020/12/08 04:15:45;;;;;;;24.60;16.08;;;5.40;99.90;;;;;;4935712;29;20280;-77
2020/12/08 04:18:13;;;;;;;26.27;15.18;;;5.40;99.90;;;;;;4936319;29;20248;-77
2020/12/08 04:20:44;;;;;;;26.15;14.30;;;5.40;99.90;;;;;;4935803;29;20239;-77
2020/12/08 04:23:13;;;;;;;20.73;13.35;;;5.50;99.90;;;;;;4936552;29;20287;-77
2020/12/08 04:25:40;;;;;;;26.38;14.70;;;5.50;99.90;;;;;;4936482;29;20205;-77
2020/12/08 04:28:08;;;;;;;30.10;16.35;;;5.50;99.90;;;;;;4936193;29;20236;-75
2020/12/08 04:30:36;;;;;;;22.40;16.08;;;5.50;99.90;;;;;;4936678;29;20200;-76
2020/12/08 04:33:07;;;;;;;20.98;16.15;;;5.40;99.90;;;;;;4936642;29;20203;-77
2020/12/08 04:35:34;;;;;;;19.77;13.57;;;5.40;99.90;;;;;;4942065;29;20208;-76
2020/12/08 04:38:02;;;;;;;21.42;15.15;;;5.40;99.90;;;;;;4944637;29;20240;-77
2020/12/08 04:40:29;;;;;;;18.27;13.05;;;5.40;99.90;;;;;;4945313;29;20727;-76
2020/12/08 04:42:57;;;;;;;18.52;11.57;;;5.40;99.90;;;;;;4945088;29;20200;-77
2020/12/08 04:45:24;;;;;;;30.00;18.15;;;5.30;99.90;;;;;;4946033;29;20193;-76
2020/12/08 04:47:51;;;;;;;24.80;15.40;;;5.30;99.90;;;;;;4945546;29;20224;-77
2020/12/08 04:50:20;;;;;;;21.23;14.63;;;5.30;99.90;;;;;;4937494;29;20240;-76
2020/12/08 04:52:51;;;;;;;42.35;17.60;;;5.40;99.90;;;;;;4938528;29;20184;-77
2020/12/08 04:55:18;;;;;;;25.77;17.77;;;5.40;99.90;;;;;;4937033;29;20204;-76
2020/12/08 04:57:46;;;;;;;17.08;14.15;;;5.40;99.90;;;;;;4936840;29;20259;-77
2020/12/08 05:00:14;;;;;;;27.80;19.17;;;5.40;99.90;;;;;;4937445;29;20303;-76
2020/12/08 05:02:48;;;;;;;26.83;14.85;;;5.40;99.90;;;;;;4938507;29;20184;-76
2020/12/08 05:05:16;;;;;;;25.08;14.30;;;5.40;99.90;;;;;;4936516;29;20247;-77
2020/12/08 05:07:45;;;;;;;27.20;15.45;;;5.30;99.90;;;;;;4936327;29;20228;-76
2020/12/08 05:10:12;;;;;;;22.75;14.98;;;5.30;99.90;;;;;;4936003;29;20570;-77
2020/12/08 05:12:40;;;;;;;23.50;16.40;;;5.30;99.90;;;;;;4937853;29;20215;-77
2020/12/08 05:15:16;;;;;;;22.40;13.50;;;5.30;99.90;;;;;;4938246;29;20490;-77
2020/12/08 05:17:44;;;;;;;25.90;17.08;;;5.30;99.90;;;;;;4939838;29;20284;-77
2020/12/08 05:20:12;;;;;;;28.83;16.63;;;5.30;99.90;;;;;;4939549;29;20247;-77
2020/12/08 05:22:53;;;;;;;21.10;15.23;;;5.30;99.90;;;;;;4936656;29;20280;-78
2020/12/08 05:25:21;;;;;;;22.50;15.40;;;5.30;99.90;;;;;;4936478;29;20192;-76
2020/12/08 05:27:50;;;;;;;26.52;16.10;;;5.30;99.90;;;;;;4935802;29;20275;-76
2020/12/08 05:30:17;;;;;;;21.42;16.27;;;5.30;99.90;;;;;;4937029;29;20185;-77
2020/12/08 05:32:45;;;;;;;27.52;15.55;;;5.20;99.90;;;;;;4938809;29;20189;-76
2020/12/08 05:35:14;;;;;;;27.02;16.10;;;5.20;99.90;;;;;;4936399;29;20232;-76
2020/12/08 05:37:47;;;;;;;30.15;15.35;;;5.30;99.90;;;;;;4936702;29;20307;-77
2020/12/08 05:40:16;;;;;;;25.40;17.23;;;5.30;99.90;;;;;;4936633;29;20212;-77
2020/12/08 05:42:45;;;;;;;29.27;17.55;;;5.30;99.90;;;;;;4935259;29;20259;-76
2020/12/08 05:45:15;;;;;;;22.83;15.77;;;5.20;99.90;;;;;;4935915;29;20696;-77
2020/12/08 05:47:44;;;;;;;32.20;15.38;;;5.30;99.90;;;;;;4936852;29;20217;-78
2020/12/08 05:50:12;;;;;;;27.65;15.23;;;5.30;99.90;;;;;;4939544;29;20173;-77
2020/12/08 05:52:40;;;;;;;32.35;18.05;;;5.30;99.90;;;;;;4935704;29;20318;-77
2020/12/08 05:55:11;;;;;;;21.40;16.23;;;5.30;99.90;;;;;;4939895;29;20192;-77
2020/12/08 05:57:40;;;;;;;37.92;17.55;;;5.40;99.90;;;;;;4935743;29;20235;-76
2020/12/08 06:00:19;;;;;;;24.88;17.65;;;5.50;99.90;;;;;;4948040;29;20211;-77
2020/12/08 06:02:46;;;;;;;23.65;14.88;;;5.50;99.90;;;;;;4955677;28;20180;-76
2020/12/08 06:05:27;;;;;;;28.20;18.58;;;5.40;99.90;;;;;;4949988;28;20204;-76
2020/12/08 06:07:55;;;;;;;27.17;13.98;;;5.40;99.90;;;;;;4935662;29;20706;-76
2020/12/08 06:10:22;;;;;;;25.70;14.77;;;5.40;99.90;;;;;;4934446;29;20192;-75
2020/12/08 06:13:08;;;;;;;38.38;17.77;;;5.40;99.90;;;;;;4935610;29;20189;-74
2020/12/08 06:15:39;;;;;;;25.27;16.42;;;5.40;99.90;;;;;;4938702;29;20563;-76
2020/12/08 06:18:07;;;;;;;24.00;15.45;;;5.40;99.90;;;;;;4937629;29;20212;-75
2020/12/08 06:20:36;;;;;;;28.52;15.45;;;5.50;99.90;;;;;;4939934;29;20543;-76
2020/12/08 06:23:05;;;;;;;21.85;16.45;;;5.40;99.90;;;;;;4939943;29;20177;-76
2020/12/08 06:25:33;;;;;;;24.60;17.85;;;5.40;99.90;;;;;;4941042;29;20309;-75
2020/12/08 06:28:01;;;;;;;23.35;14.90;;;5.40;99.90;;;;;;4940660;29;20232;-75
2020/12/08 06:30:29;;;;;;;27.90;15.95;;;5.40;99.90;;;;;;4939930;29;20181;-75
2020/12/08 06:33:01;;;;;;;25.73;15.77;;;5.40;99.90;;;;;;4939772;29;20177;-76
2020/12/08 06:35:32;;;;;;;29.13;17.73;;;5.40;99.90;;;;;;4939725;29;20189;-75
2020/12/08 06:38:15;;;;;;;22.55;13.05;;;5.40;99.90;;;;;;4939559;29;20271;-76
2020/12/08 06:40:51;;;;;;;22.15;15.82;;;5.40;99.90;;;;;;4940263;29;20563;-76
2020/12/08 06:43:18;;;;;;;20.25;15.10;;;5.40;99.90;;;;;;4940431;29;20687;-77
2020/12/08 06:45:46;;;;;;;29.95;15.50;;;5.40;99.90;;;;;;4940216;29;20719;-76
2020/12/08 06:48:18;;;;;;;30.05;17.27;;;5.40;99.90;;;;;;4939758;29;20742;-75
2020/12/08 06:50:46;;;;;;;23.63;15.05;;;5.30;99.90;;;;;;4939165;29;20179;-78
2020/12/08 06:53:14;;;;;;;26.08;15.82;;;5.30;99.90;;;;;;4939046;29;20236;-77
2020/12/08 06:55:47;;;;;;;21.40;14.73;;;5.30;99.90;;;;;;4939278;29;20189;-76
2020/12/08 06:58:14;;;;;;;22.23;14.13;;;5.30;99.90;;;;;;4939309;29;20205;-75
2020/12/08 07:00:41;;;;;;;31.40;14.73;;;5.30;99.90;;;;;;4938518;29;20675;-75
2020/12/08 07:03:10;;;;;;;25.00;17.60;;;5.20;99.90;;;;;;4939271;29;20181;-76
2020/12/08 07:05:38;;;;;;;30.05;16.65;;;5.20;99.90;;;;;;4939033;29;20653;-75
2020/12/08 07:08:07;;;;;;;20.55;14.00;;;5.20;99.90;;;;;;4938579;29;20220;-75
2020/12/08 07:10:38;;;;;;;24.63;19.05;;;5.10;99.90;;;;;;4938760;29;20656;-75
2020/12/08 07:13:13;;;;;;;39.08;16.75;;;5.10;99.90;;;;;;4938507;29;20195;-75
2020/12/08 07:15:41;;;;;;;31.85;19.63;;;5.10;99.90;;;;;;4938059;29;20189;-74
2020/12/08 07:18:11;;;;;;;30.48;17.20;;;5.10;99.90;;;;;;4938539;29;20213;-75
2020/12/08 07:20:40;;;;;;;19.35;14.13;;;5.10;99.90;;;;;;4937806;29;20303;-76
2020/12/08 07:23:09;;;;;;;23.23;13.68;;;5.10;99.90;;;;;;4938533;29;20612;-74
2020/12/08 07:25:37;;;;;;;28.90;14.73;;;5.10;99.90;;;;;;4938753;29;20185;-77
2020/12/08 07:28:08;;;;;;;23.33;16.25;;;5.10;99.90;;;;;;4938462;29;20228;-76
2020/12/08 07:30:35;;;;;;;31.33;16.83;;;5.10;99.90;;;;;;4937952;29;20216;-75
2020/12/08 07:33:10;;;;;;;24.65;15.27;;;5.10;99.90;;;;;;4938268;29;20271;-75
2020/12/08 07:35:38;;;;;;;26.63;14.48;;;5.20;99.90;;;;;;4938066;29;20202;-76
2020/12/08 07:38:05;;;;;;;30.35;17.67;;;5.20;99.90;;;;;;4938120;29;20272;-76
2020/12/08 07:40:34;;;;;;;24.52;15.85;;;5.20;99.90;;;;;;4937689;29;20236;-75
2020/12/08 07:43:01;;;;;;;28.25;16.25;;;5.20;99.90;;;;;;4937009;29;20193;-75
2020/12/08 07:45:30;;;;;;;22.85;17.08;;;5.20;99.90;;;;;;4936561;29;20197;-74
2020/12/08 07:47:59;;;;;;;28.73;16.15;;;5.20;99.90;;;;;;4937761;29;20556;-75
2020/12/08 07:50:28;;;;;;;22.52;13.98;;;5.20;99.90;;;;;;4938110;29;20178;-75
2020/12/08 07:53:00;;;;;;;29.70;15.65;;;5.00;99.90;;;;;;4937745;29;20260;-75
2020/12/08 07:55:29;;;;;;;25.15;16.52;;;5.10;99.90;;;;;;4936522;29;20200;-75
2020/12/08 07:57:57;;;;;;;24.38;15.40;;;5.00;99.90;;;;;;4937444;29;20631;-76
2020/12/08 08:00:24;;;;;;;26.52;15.68;;;5.00;99.90;;;;;;4937936;29;20212;-75
2020/12/08 08:06:35;;;;;;;23.45;15.90;;;5.00;99.90;;;;;;4937329;29;20742;-75
2020/12/08 08:09:06;;;;;;;19.08;13.85;;;5.10;99.90;;;;;;4938025;29;20296;-75
2020/12/08 08:11:34;;;;;;;20.48;15.98;;;5.10;99.90;;;;;;4938310;29;20526;-77
2020/12/08 08:14:02;;;;;;;26.95;14.15;;;5.30;99.90;;;;;;4938443;29;20216;-75
2020/12/08 08:16:30;;;;;;;30.35;18.27;;;5.30;99.90;;;;;;4937668;29;20255;-76
2020/12/08 08:18:58;;;;;;;20.33;14.05;;;5.30;99.90;;;;;;4937488;29;20313;-76
2020/12/08 08:21:25;;;;;;;31.92;12.88;;;5.40;99.90;;;;;;4937692;29;20219;-76
2020/12/08 08:23:57;;;;;;;26.65;15.57;;;5.30;99.90;;;;;;4940713;29;20181;-76
2020/12/08 08:26:24;;;;;;;24.88;18.90;;;5.20;99.90;;;;;;4941908;29;20185;-74
2020/12/08 08:28:52;;;;;;;27.35;15.63;;;5.10;99.90;;;;;;4939383;29;20319;-76
2020/12/08 08:31:20;;;;;;;19.27;12.32;;;5.10;99.90;;;;;;4940851;29;20272;-76
2020/12/08 08:33:47;;;;;;;22.65;14.00;;;5.20;99.90;;;;;;4941081;29;20209;-76
2020/12/08 08:36:15;;;;;;;26.15;16.67;;;5.20;99.90;;;;;;4941080;29;20193;-75
2020/12/08 08:38:43;;;;;;;28.15;14.25;;;5.10;99.90;;;;;;4940182;29;20307;-75
2020/12/08 08:41:12;;;;;;;27.80;18.20;;;5.10;99.90;;;;;;4938218;29;20209;-76
2020/12/08 08:43:40;;;;;;;25.42;15.75;;;5.20;99.90;;;;;;4936992;29;20664;-75
2020/12/08 08:46:09;;;;;;;22.92;15.60;;;5.30;99.90;;;;;;4936984;29;20188;-75
2020/12/08 08:48:37;;;;;;;24.95;15.63;;;5.30;99.90;;;;;;4936818;29;20223;-76
2020/12/08 08:51:06;;;;;;;35.05;16.88;;;5.30;99.90;;;;;;4937333;29;20213;-75
2020/12/08 08:53:34;;;;;;;31.80;15.63;;;5.40;99.90;;;;;;4936942;29;20220;-75
2020/12/08 08:56:01;;;;;;;24.45;15.95;;;5.30;99.90;;;;;;4937110;29;20177;-74
2020/12/08 08:58:30;;;;;;;19.08;14.02;;;5.10;99.90;;;;;;4937288;29;20246;-75
2020/12/08 09:00:58;;;;;;;21.25;14.98;;;5.10;99.90;;;;;;4937759;29;20226;-75
2020/12/08 09:03:25;;;;;;;20.75;13.38;;;5.00;99.90;;;;;;4937214;29;20192;-75
2020/12/08 09:05:53;;;;;;;24.75;15.65;;;4.90;99.90;;;;;;4937395;29;20283;-74
2020/12/08 09:08:24;;;;;;;22.55;14.52;;;4.90;99.90;;;;;;4937373;29;20695;-75
2020/12/08 09:10:52;;;;;;;19.77;11.32;;;4.80;99.90;;;;;;4936940;29;20181;-76
2020/12/08 09:13:19;;;;;;;28.55;17.58;;;4.80;99.90;;;;;;4937493;29;20263;-76
2020/12/08 09:15:48;;;;;;;28.20;14.82;;;4.70;99.90;;;;;;4936580;29;20586;-75
2020/12/08 09:18:15;;;;;;;20.10;14.10;;;4.70;99.90;;;;;;4937259;29;20215;-76
2020/12/08 09:20:43;;;;;;;24.13;14.95;;;4.70;99.90;;;;;;4936663;29;20236;-75
2020/12/08 09:23:10;;;;;;;21.75;16.05;;;4.90;99.90;;;;;;4936227;29;20201;-74
2020/12/08 09:25:38;;;;;;;24.00;15.55;;;5.00;99.90;;;;;;4936662;29;20192;-73
2020/12/08 09:28:06;;;;;;;19.52;14.60;;;5.00;99.90;;;;;;4936147;29;20280;-75
2020/12/08 09:30:33;;;;;;;24.52;13.77;;;5.10;99.90;;;;;;4934932;29;20283;-75
2020/12/08 09:33:01;;;;;;;27.13;15.95;;;5.30;99.90;;;;;;4936373;29;20283;-74
2020/12/08 09:35:29;;;;;;;23.55;14.00;;;5.30;99.90;;;;;;4936766;29;20264;-75
2020/12/08 09:37:56;;;;;;;28.52;17.38;;;5.30;99.90;;;;;;4936042;29;20219;-74
2020/12/08 09:40:24;;;;;;;23.52;14.30;;;5.30;99.90;;;;;;4936868;29;20232;-75
2020/12/08 09:42:51;;;;;;;23.63;15.07;;;5.30;99.90;;;;;;4936679;29;20224;-75
2020/12/08 09:45:19;;;;;;;24.95;15.45;;;5.40;99.90;;;;;;4936341;29;20191;-76
2020/12/08 09:47:47;;;;;;;23.88;17.02;;;5.40;99.90;;;;;;4936577;29;20213;-75
2020/12/08 09:50:15;;;;;;;27.35;15.50;;;5.50;99.90;;;;;;4936813;29;20196;-74
2020/12/08 09:52:43;;;;;;;23.02;14.27;;;5.50;99.90;;;;;;4936603;29;20284;-75
2020/12/08 09:55:10;;;;;;;28.17;18.50;;;5.50;99.90;;;;;;4937633;29;20181;-75
2020/12/08 09:57:38;;;;;;;36.45;15.98;;;5.50;99.90;;;;;;4954995;28;20214;-77
2020/12/08 10:00:07;;;;;;;22.40;15.07;;;5.40;99.90;;;;;;4954921;28;20207;-76
2020/12/08 10:02:34;;;;;;;23.15;14.40;;;5.40;99.90;;;;;;4954160;29;20634;-76
2020/12/08 10:05:02;;;;;;;29.13;17.90;;;5.50;99.90;;;;;;4951580;28;21027;-76
2020/12/08 10:07:30;;;;;;;31.40;16.00;;;5.60;99.90;;;;;;4936128;29;20223;-76
2020/12/08 10:10:01;;;;;;;26.55;15.73;;;5.70;99.90;;;;;;4936236;29;20200;-75
2020/12/08 10:12:32;;;;;;;22.65;16.23;;;5.70;99.90;;;;;;4935915;29;20176;-75
2020/12/08 10:15:00;;;;;;;22.20;15.32;;;6.00;99.90;;;;;;4934740;29;20203;-76
2020/12/08 10:17:28;;;;;;;25.17;17.63;;;6.20;99.90;;;;;;4935668;29;20213;-75
2020/12/08 10:19:55;;;;;;;22.67;17.05;;;6.50;99.90;;;;;;4930913;29;20572;-75
2020/12/08 10:22:23;;;;;;;26.75;17.48;;;6.80;99.90;;;;;;4916788;29;20561;-75
2020/12/08 10:24:51;;;;;;;27.95;16.30;;;6.60;99.90;;;;;;4915782;29;20203;-76
2020/12/08 10:27:19;;;;;;;23.98;16.25;;;6.50;99.90;;;;;;4915059;29;20229;-76
2020/12/08 10:29:46;;;;;;;22.60;14.70;;;6.40;99.90;;;;;;4916659;29;20185;-75
2020/12/08 10:32:13;;;;;;;29.05;17.20;;;6.50;99.90;;;;;;4916265;29;20281;-77
2020/12/08 10:34:41;;;;;;;18.15;12.40;;;6.60;99.90;;;;;;4916318;29;20296;-76
2020/12/08 10:37:09;;;;;;;26.35;15.93;;;6.50;99.90;;;;;;4916700;29;20217;-77
2020/12/08 10:39:36;;;;;;;26.02;16.30;;;6.20;99.90;;;;;;4916428;29;20541;-75
2020/12/08 10:42:09;;;;;;;31.35;18.23;;;6.50;99.90;;;;;;4916717;29;20178;-75
2020/12/08 10:44:36;;;;;;;22.80;15.35;;;6.50;99.90;;;;;;4916244;29;20182;-74
2020/12/08 10:47:04;;;;;;;23.60;14.98;;;6.50;99.90;;;;;;4931131;29;20272;-75
2020/12/08 10:49:31;;;;;;;26.80;15.15;;;6.50;99.90;;;;;;4933658;29;20232;-75
2020/12/08 10:51:59;;;;;;;25.70;15.45;;;6.40;99.90;;;;;;4935475;29;20173;-74
2020/12/08 10:54:27;;;;;;;23.30;16.02;;;6.60;99.90;;;;;;4934514;29;20696;-76
2020/12/08 10:56:54;;;;;;;26.65;17.40;;;6.50;99.90;;;;;;4935060;29;20181;-75
2020/12/08 10:59:23;;;;;;;21.23;13.55;;;6.40;99.90;;;;;;4935493;29;20265;-76
2020/12/08 11:02:01;;;;;;;29.27;14.02;;;6.70;99.90;;;;;;4935901;29;20283;-75
2020/12/08 11:04:29;;;;;;;20.08;14.93;;;6.80;99.90;;;;;;4936248;29;20188;-75
2020/12/08 11:06:56;;;;;;;18.73;12.90;;;6.70;99.90;;;;;;4938883;29;20180;-75
2020/12/08 11:09:24;;;;;;;28.75;15.20;;;6.60;99.90;;;;;;4938889;29;20198;-76
2020/12/08 11:11:52;;;;;;;22.65;15.35;;;6.80;99.90;;;;;;4938955;29;20173;-76
2020/12/08 11:14:20;;;;;;;25.70;18.70;;;6.90;99.90;;;;;;4938299;29;20530;-75
2020/12/08 11:16:48;;;;;;;23.90;17.50;;;6.70;99.90;;;;;;4938280;29;20177;-75
2020/12/08 11:19:32;;;;;;;19.63;15.65;;;6.70;99.90;;;;;;4936705;29;20200;-75
2020/12/08 11:22:03;;;;;;;24.48;17.10;;;6.50;99.90;;;;;;4938241;29;20244;-75
2020/12/08 11:24:40;;;;;;;22.17;14.70;;;6.30;99.90;;;;;;4939006;29;20181;-76
2020/12/08 11:27:16;;;;;;;27.83;14.90;;;6.40;99.90;;;;;;4938669;29;20240;-74
2020/12/08 11:29:44;;;;;;;36.33;16.80;;;6.40;99.90;;;;;;4939985;29;20191;-75
2020/12/08 11:32:14;;;;;;;24.67;16.38;;;6.40;99.90;;;;;;4937988;29;20189;-75
2020/12/08 11:34:42;;;;;;;26.15;15.85;;;6.50;99.90;;;;;;4938193;29;20240;-75
2020/12/08 11:37:09;;;;;;;26.88;16.70;;;6.70;99.90;;;;;;4937996;29;20220;-73
2020/12/08 11:39:37;;;;;;;28.55;16.15;;;7.10;99.90;;;;;;4938017;29;20530;-74
2020/12/08 11:42:07;;;;;;;29.38;14.43;;;7.30;99.90;;;;;;4938429;29;20562;-76
2020/12/08 11:44:35;;;;;;;20.38;16.20;;;7.30;99.90;;;;;;4940231;29;20189;-75
2020/12/08 11:47:02;;;;;;;25.40;14.43;;;7.30;99.90;;;;;;4939963;29;20722;-74
2020/12/08 11:49:36;;;;;;;22.15;14.45;;;7.10;99.90;;;;;;4971005;28;20219;-73
2020/12/08 11:52:05;;;;;;;33.58;17.05;;;6.80;99.90;;;;;;4938595;29;20213;-75
2020/12/08 11:54:32;;;;;;;27.27;16.02;;;6.90;99.90;;;;;;4938029;29;20193;-73
2020/12/08 11:57:00;;;;;;;35.25;17.92;;;7.00;99.90;;;;;;4936773;29;20193;-74
2020/12/08 11:59:27;;;;;;;18.25;14.30;;;7.00;99.90;;;;;;4938032;29;20181;-74
2020/12/08 12:01:54;;;;;;;27.35;16.80;;;6.70;99.90;;;;;;4938605;29;20217;-74
2020/12/08 12:04:22;;;;;;;26.05;15.60;;;6.90;99.90;;;;;;4939655;29;20181;-75
2020/12/08 12:06:50;;;;;;;27.50;17.05;;;7.30;99.90;;;;;;4938174;29;20240;-75
2020/12/08 12:09:18;;;;;;;25.92;16.63;;;7.10;99.90;;;;;;4939488;29;20180;-75
2020/12/08 12:11:45;;;;;;;27.90;18.77;;;7.00;99.90;;;;;;4939625;29;20173;-75
2020/12/08 12:14:12;;;;;;;20.55;15.07;;;6.90;99.90;;;;;;4942171;29;20185;-75
2020/12/08 12:16:40;;;;;;;20.52;15.80;;;6.80;99.90;;;;;;4972299;28;20991;-75
2020/12/08 12:19:07;;;;;;;20.98;12.40;;;6.70;99.90;;;;;;4941169;29;20205;-74
2020/12/08 12:21:35;;;;;;;28.40;16.13;;;6.70;99.90;;;;;;4937731;29;20201;-74
2020/12/08 12:24:03;;;;;;;24.27;15.60;;;6.80;99.90;;;;;;4932443;29;20279;-74
2020/12/08 12:26:44;;;;;;;29.02;17.38;;;6.90;99.90;;;;;;4939924;29;20189;-74
2020/12/08 12:29:11;;;;;;;21.80;15.25;;;7.00;99.90;;;;;;4936846;29;20189;-75
2020/12/08 12:31:43;;;;;;;22.83;15.00;;;7.00;99.90;;;;;;4937922;29;20181;-74
2020/12/08 12:34:11;;;;;;;26.77;16.48;;;7.00;99.90;;;;;;4938413;29;20719;-75
2020/12/08 12:36:39;;;;;;;21.25;14.82;;;7.20;99.90;;;;;;4936778;29;20204;-75
2020/12/08 12:39:07;;;;;;;26.35;16.63;;;7.20;99.90;;;;;;4938329;29;20581;-73
2020/12/08 12:41:35;;;;;;;27.13;17.75;;;7.60;99.90;;;;;;4939673;29;20212;-75
2020/12/08 12:44:02;;;;;;;26.13;17.88;;;7.90;99.90;;;;;;4937201;29;20619;-74
2020/12/08 12:46:30;;;;;;;28.90;17.40;;;7.80;99.90;;;;;;4937775;29;20192;-75
2020/12/08 12:48:59;;;;;;;23.02;17.00;;;7.40;99.90;;;;;;4940030;29;20237;-74